createdAt,value
2022-12-19T00:01:35.226Z,20.81
2022-12-19T00:06:43.405Z,20.71
2022-12-19T00:11:48.423Z,20.70
2022-12-19T00:16:51.212Z,20.63
2022-12-19T00:21:55.838Z,20.57
2022-12-19T00:26:58.657Z,20.55
2022-12-19T00:32:03.950Z,20.53
2022-12-19T00:37:08.060Z,20.45
2022-12-19T00:42:10.943Z,20.43
2022-12-19T00:47:13.666Z,20.36
2022-12-19T00:52:17.803Z,20.30
2022-12-19T00:57:20.548Z,20.21
2022-12-19T01:02:23.499Z,20.18
2022-12-19T01:07:27.647Z,20.13
2022-12-19T01:12:48.724Z,19.97
2022-12-19T01:17:51.729Z,20.04
2022-12-19T01:22:55.957Z,19.97
2022-12-19T01:27:58.801Z,19.89
2022-12-19T01:33:01.665Z,19.80
2022-12-19T01:38:09.162Z,19.75
2022-12-19T01:43:13.995Z,19.73
2022-12-19T01:48:20.306Z,19.66
2022-12-19T01:53:24.667Z,19.58
2022-12-19T01:58:27.415Z,19.51
2022-12-19T02:03:30.418Z,19.47
2022-12-19T02:08:34.537Z,19.40
2022-12-19T02:13:37.762Z,19.36
2022-12-19T02:18:45.470Z,19.31
2022-12-19T02:24:30.449Z,19.25
2022-12-19T02:29:48.806Z,19.21
2022-12-19T02:34:55.805Z,19.15
2022-12-19T02:40:01.831Z,19.13
2022-12-19T02:45:06.467Z,19.08
2022-12-19T02:50:10.961Z,19.07
2022-12-19T02:55:15.943Z,19.04
2022-12-19T03:00:19.790Z,19.02
2022-12-19T03:05:26.132Z,18.99
2022-12-19T03:10:31.953Z,18.97
2022-12-19T03:15:34.820Z,18.96
2022-12-19T03:20:47.099Z,18.94
2022-12-19T03:25:51.341Z,18.92
2022-12-19T03:30:54.150Z,18.88
2022-12-19T03:35:58.340Z,18.87
2022-12-19T03:41:02.290Z,18.82
2022-12-19T03:46:07.633Z,18.81
2022-12-19T03:51:15.655Z,18.79
2022-12-19T03:56:21.244Z,18.77
2022-12-19T04:01:24.333Z,18.74
2022-12-19T04:06:29.512Z,18.73
2022-12-19T04:11:36.896Z,18.69
2022-12-19T04:16:41.238Z,18.67
2022-12-19T04:21:48.168Z,18.68
2022-12-19T04:26:51.146Z,18.67
2022-12-19T04:31:53.927Z,18.66
2022-12-19T04:36:58.119Z,18.63
2022-12-19T04:42:00.859Z,18.62
2022-12-19T04:47:03.629Z,18.61
2022-12-19T04:52:08.010Z,18.57
2022-12-19T04:57:10.799Z,18.55
2022-12-19T05:02:13.628Z,18.51
2022-12-19T05:07:25.571Z,18.51
2022-12-19T05:12:29.506Z,18.49
2022-12-19T05:17:32.207Z,18.48
2022-12-19T05:22:36.511Z,18.46
2022-12-19T05:27:39.307Z,18.45
2022-12-19T05:32:42.076Z,18.43
2022-12-19T05:37:46.265Z,18.42
2022-12-19T05:42:49.010Z,18.41
2022-12-19T05:47:51.846Z,18.40
2022-12-19T05:52:56.066Z,18.38
2022-12-19T05:57:58.802Z,18.37
2022-12-19T06:03:01.672Z,18.36
2022-12-19T06:08:06.546Z,18.34
2022-12-19T06:13:09.398Z,18.34
2022-12-19T06:18:12.325Z,18.33
2022-12-19T06:23:16.595Z,18.31
2022-12-19T06:28:20.095Z,18.30
2022-12-19T06:33:23.201Z,18.29
2022-12-19T06:38:27.480Z,18.28
2022-12-19T06:43:30.613Z,18.27
2022-12-19T06:48:33.429Z,18.26
2022-12-19T06:53:37.599Z,18.25
2022-12-19T06:58:40.446Z,18.25
2022-12-19T07:03:43.198Z,18.24
2022-12-19T07:08:47.640Z,18.23
2022-12-19T07:13:50.459Z,18.22
2022-12-19T07:18:53.393Z,18.22
2022-12-19T07:23:57.584Z,18.20
2022-12-19T07:29:00.393Z,18.19
2022-12-19T07:34:03.176Z,18.18
2022-12-19T07:39:07.439Z,18.17
2022-12-19T07:44:13.148Z,18.17
2022-12-19T07:49:22.325Z,18.17
2022-12-19T07:54:26.930Z,18.14
2022-12-19T07:59:34.388Z,17.35
2022-12-19T08:04:41.606Z,15.06
2022-12-19T08:09:45.736Z,14.17
2022-12-19T08:14:51.609Z,13.69
2022-12-19T08:19:58.440Z,15.00
2022-12-19T08:25:02.670Z,15.83
2022-12-19T08:30:06.520Z,16.41
2022-12-19T08:35:11.925Z,16.85
2022-12-19T08:40:16.062Z,17.24
2022-12-19T08:45:19.245Z,17.53
2022-12-19T08:50:22.175Z,17.73
2022-12-19T08:55:26.513Z,17.87
2022-12-19T09:00:31.062Z,18.02
2022-12-19T09:06:03.649Z,18.14
2022-12-19T09:11:00.653Z,18.23
2022-12-19T09:16:03.868Z,18.32
2022-12-19T09:21:07.793Z,18.31
2022-12-19T09:26:13.178Z,18.48
2022-12-19T09:31:17.033Z,18.52
2022-12-19T09:36:20.831Z,18.59
2022-12-19T09:41:42.525Z,18.64
2022-12-19T09:46:49.049Z,18.71
2022-12-19T09:51:58.909Z,18.80
2022-12-19T09:57:05.178Z,18.86
2022-12-19T10:02:21.056Z,18.91
2022-12-19T10:07:59.699Z,18.96
2022-12-19T10:12:59.648Z,19.00
2022-12-19T10:18:15.455Z,19.04
2022-12-19T10:23:28.043Z,19.01
2022-12-19T10:28:47.922Z,18.99
2022-12-19T10:33:54.607Z,19.03
2022-12-19T10:38:58.938Z,19.03
2022-12-19T10:44:05.773Z,19.03
2022-12-19T10:49:18.520Z,19.00
2022-12-19T10:54:21.579Z,19.00
2022-12-19T10:59:25.830Z,19.00
2022-12-19T11:04:31.008Z,19.01
2022-12-19T11:09:37.790Z,19.04
2022-12-19T11:21:53.468Z,19.03
2022-12-19T11:29:34.683Z,18.99
2022-12-19T11:30:44.124Z,19.04
2022-12-19T11:36:31.937Z,18.98
2022-12-19T11:41:36.503Z,18.97
2022-12-19T11:46:43.336Z,18.93
2022-12-19T11:51:49.549Z,18.90
2022-12-19T11:56:52.513Z,18.92
2022-12-19T12:02:33.938Z,18.88
2022-12-19T12:08:11.585Z,18.90
2022-12-19T12:20:34.867Z,18.93
2022-12-19T12:31:04.287Z,18.95
2022-12-19T12:31:53.908Z,18.91
2022-12-19T12:31:56.041Z,18.91
2022-12-19T12:35:46.391Z,18.92
2022-12-19T12:40:35.708Z,18.93
2022-12-19T12:45:39.895Z,18.95
2022-12-19T12:50:45.798Z,18.94
2022-12-19T12:55:51.656Z,18.94
2022-12-19T13:01:09.010Z,18.96
2022-12-19T13:06:25.844Z,18.96
2022-12-19T13:11:56.942Z,18.95
2022-12-19T13:16:59.857Z,18.99
2022-12-19T13:22:22.859Z,18.16
2022-12-19T13:27:41.252Z,16.70
2022-12-19T13:33:10.155Z,17.02
2022-12-19T13:39:54.164Z,17.53
2022-12-19T13:43:47.525Z,17.89
2022-12-19T13:48:51.551Z,18.16
2022-12-19T13:53:59.495Z,18.39
2022-12-19T13:59:03.756Z,18.55
2022-12-19T14:04:08.825Z,18.68
2022-12-19T14:11:30.260Z,18.73
2022-12-19T14:15:13.123Z,18.83
2022-12-19T14:22:01.415Z,18.88
2022-12-19T14:28:19.134Z,18.89
2022-12-19T14:31:10.444Z,18.90
2022-12-19T14:36:18.612Z,18.89
2022-12-19T14:42:00.630Z,18.89
2022-12-19T14:52:51.159Z,18.92
2022-12-19T14:54:34.887Z,18.87
2022-12-19T14:58:54.242Z,18.90
2022-12-19T15:03:24.149Z,18.91
2022-12-19T15:10:57.192Z,18.92
2022-12-19T15:14:53.359Z,18.96
2022-12-19T15:19:18.323Z,19.01
2022-12-19T15:24:21.135Z,19.07
2022-12-19T15:29:26.144Z,19.11
2022-12-19T15:34:43.043Z,19.20
2022-12-19T15:39:51.613Z,19.30
2022-12-19T15:44:57.372Z,19.36
2022-12-19T15:50:02.919Z,19.43
2022-12-19T15:55:07.528Z,19.49
2022-12-19T16:00:18.494Z,19.56
2022-12-19T16:05:21.980Z,19.61
2022-12-19T16:10:24.919Z,19.68
2022-12-19T16:15:30.672Z,19.71
2022-12-19T16:20:36.038Z,19.80
2022-12-19T16:25:40.072Z,19.86
2022-12-19T16:30:44.685Z,19.92
2022-12-19T16:36:05.267Z,19.98
2022-12-19T16:41:11.316Z,20.04
2022-12-19T16:46:19.246Z,20.10
2022-12-19T16:51:23.429Z,20.14
2022-12-19T16:56:28.591Z,20.19
2022-12-19T17:01:33.127Z,20.25
2022-12-19T17:06:36.140Z,20.29
2022-12-19T17:11:45.939Z,20.30
2022-12-19T17:16:53.444Z,20.37
2022-12-19T17:21:56.433Z,20.52
2022-12-19T17:26:59.622Z,20.64
2022-12-19T17:32:04.339Z,20.76
2022-12-19T17:37:07.148Z,20.85
2022-12-19T17:42:14.686Z,20.91
2022-12-19T17:47:19.613Z,20.94
2022-12-19T17:52:22.796Z,20.95
2022-12-19T17:57:26.904Z,20.95
2022-12-19T18:02:31.443Z,20.96
2022-12-19T18:07:34.393Z,20.95
2022-12-19T18:12:37.200Z,20.97
2022-12-19T18:17:41.472Z,20.99
2022-12-19T18:22:44.348Z,20.99
2022-12-19T18:27:47.418Z,21.00
2022-12-19T18:32:53.749Z,21.01
2022-12-19T18:37:56.630Z,20.92
2022-12-19T18:42:59.387Z,21.04
2022-12-19T18:48:05.130Z,21.04
2022-12-19T18:53:11.917Z,21.04
2022-12-19T18:58:15.327Z,21.02
2022-12-19T19:03:20.311Z,21.01
2022-12-19T19:08:26.148Z,20.99
2022-12-19T19:13:39.743Z,20.98
2022-12-19T19:18:44.000Z,21.01
2022-12-19T19:23:48.877Z,20.99
2022-12-19T19:28:52.756Z,20.99
2022-12-19T19:34:00.161Z,20.98
2022-12-19T19:39:03.454Z,20.98
2022-12-19T19:44:06.489Z,21.00
2022-12-19T19:49:10.871Z,20.97
2022-12-19T19:54:14.057Z,20.99
2022-12-19T19:59:17.093Z,20.98
2022-12-19T20:04:21.348Z,20.98
2022-12-19T20:09:24.141Z,20.95
2022-12-19T20:14:27.735Z,20.99
2022-12-19T20:19:31.845Z,20.98
2022-12-19T20:24:34.820Z,20.96
2022-12-19T20:29:37.663Z,20.97
2022-12-19T20:34:42.049Z,20.96
2022-12-19T20:39:44.905Z,20.96
2022-12-19T20:44:48.066Z,20.97
2022-12-19T20:49:52.256Z,20.98
2022-12-19T20:54:55.073Z,20.99
2022-12-19T20:59:57.926Z,20.98
2022-12-19T21:05:02.236Z,20.96
2022-12-19T21:10:05.869Z,20.95
2022-12-19T21:15:09.060Z,20.89
2022-12-19T21:20:13.748Z,20.93
2022-12-19T21:25:16.971Z,20.89
2022-12-19T21:30:20.057Z,20.92
2022-12-19T21:35:24.197Z,20.93
2022-12-19T21:40:27.008Z,20.91
2022-12-19T21:45:30.217Z,20.93
2022-12-19T21:50:34.370Z,20.93
2022-12-19T21:55:37.247Z,20.92
2022-12-19T22:00:40.096Z,20.89
2022-12-19T22:05:44.306Z,20.89
2022-12-19T22:10:47.656Z,20.90
2022-12-19T22:15:50.575Z,20.90
2022-12-19T22:20:57.539Z,20.90
2022-12-19T22:26:04.548Z,20.90
2022-12-19T22:31:15.997Z,20.90
2022-12-19T22:36:27.334Z,20.89
2022-12-19T22:41:31.634Z,20.91
2022-12-19T22:46:35.164Z,20.90
2022-12-19T22:51:39.755Z,20.91
2022-12-19T22:56:42.669Z,20.93
2022-12-19T23:01:45.608Z,20.90
2022-12-19T23:06:49.900Z,20.93
2022-12-19T23:11:52.703Z,20.93
2022-12-19T23:16:55.542Z,20.92
2022-12-19T23:21:59.974Z,20.92
2022-12-19T23:27:02.882Z,20.92
2022-12-19T23:32:06.129Z,20.93
2022-12-19T23:37:11.823Z,20.86
2022-12-19T23:42:15.137Z,20.80
2022-12-19T23:47:18.107Z,20.74
2022-12-19T23:52:22.769Z,20.70
2022-12-19T23:57:26.986Z,20.63
